PWSweather.com
Personal Weather Stations
Station Observations
COONRAPIDS
Minneapolis, MN 55433

Minneapolis, MN 55433

Lat: 45.187721, Lon: -93.36828

Elevation: 898

Station Type: Davis Vantage Pro 2

Latest ConditionsUpdated 6:20:01 PM CST Thursday, Feb 26, 2015
Currently Today's Max Today's Min Today's Average
Temperature 6.8°F-14.0°C 11.4°F-11.4°C -4.4°F-20.2°C 3.4°F-15.9°C
Dew Point -7.5°F-21.9°C -6.8°F-21.6°C -12.8°F-24.9°C -9.9°F-23.3°C
Winds Calm Calm 5.1 mph NNE8.2 kmh NNE - 1.2 mph 1.9 kmh
Wind Gusts 3.0 mph4.8 kmh 10.0 mph16.1 kmh - -
Humidity 51% 67% 42% 54%
Pressure 30.47 in1031.8 mb 30.49 in1032.5 mb 30.30 in1026.1 mb -
Hour Temp Dew Point Humidity Winds Wind Gusts Pressure Precip Precip Rate Daily Precip Total
06:20 PM 6.8°F-14.0°C -7.5°F-21.9°C 51% Calm Calm 3.0 mph4.8 kmh 30.47 in1031.8 mb 0.00 in0.0 mm 0.00 in/hr0.0 mm/hr 0.00 in0.0 mm
06:10 PM 7.1°F-13.8°C -7.3°F-21.8°C 51% 0.1 mph NNW0.2 kmh NNW -- 30.47 in1031.8 mb 0.00 in0.0 mm 0.00 in/hr0.0 mm/hr 0.00 in0.0 mm
06:00 PM 7.4°F-13.7°C -7.4°F-21.9°C 50% Calm Calm -- 30.47 in1031.8 mb 0.00 in0.0 mm 0.00 in/hr0.0 mm/hr 0.00 in0.0 mm
05:50 PM 7.7°F-13.5°C -7.5°F-21.9°C 49% Calm Calm -- 30.47 in1031.8 mb 0.00 in0.0 mm 0.00 in/hr0.0 mm/hr 0.00 in0.0 mm
05:40 PM 8.1°F-13.3°C -7.6°F-22.0°C 48% 1.8 mph NW2.9 kmh NW 1.0 mph1.6 kmh 30.46 in1031.5 mb 0.00 in0.0 mm 0.00 in/hr0.0 mm/hr 0.00 in0.0 mm
05:30 PM 8.3°F-13.2°C -7.4°F-21.9°C 48% 0.3 mph NW0.5 kmh NW 3.0 mph4.8 kmh 30.46 in1031.5 mb 0.00 in0.0 mm 0.00 in/hr0.0 mm/hr 0.00 in0.0 mm
05:20 PM 8.8°F-12.9°C -6.9°F-21.6°C 48% 2.7 mph N4.3 kmh N 6.0 mph9.7 kmh 30.46 in1031.5 mb 0.00 in0.0 mm 0.00 in/hr0.0 mm/hr 0.00 in0.0 mm
05:10 PM 9.1°F-12.7°C -7.1°F-21.7°C 47% 0.9 mph NNW1.4 kmh NNW -- 30.46 in1031.5 mb 0.00 in0.0 mm 0.00 in/hr0.0 mm/hr 0.00 in0.0 mm
05:00 PM 9.6°F-12.4°C -7.1°F-21.7°C 46% 0.3 mph N0.5 kmh N 7.0 mph11.3 kmh 30.46 in1031.5 mb 0.00 in0.0 mm 0.00 in/hr0.0 mm/hr 0.00 in0.0 mm
04:50 PM 9.7°F-12.4°C -7.4°F-21.9°C 45% 0.2 mph NW0.3 kmh NW -- 30.46 in1031.5 mb 0.00 in0.0 mm 0.00 in/hr0.0 mm/hr 0.00 in0.0 mm
04:40 PM 9.8°F-12.3°C -7.3°F-21.8°C 45% 4.8 mph NW7.7 kmh NW 7.0 mph11.3 kmh 30.47 in1031.8 mb 0.00 in0.0 mm 0.00 in/hr0.0 mm/hr 0.00 in0.0 mm
04:30 PM 10.1°F-12.2°C -7.1°F-21.7°C 45% 1.5 mph NNW2.4 kmh NNW 5.0 mph8.0 kmh 30.47 in1031.8 mb 0.00 in0.0 mm 0.00 in/hr0.0 mm/hr 0.00 in0.0 mm
04:20 PM 10.3°F-12.1°C -6.9°F-21.6°C 45% 1.5 mph NE2.4 kmh NE 6.0 mph9.7 kmh 30.46 in1031.5 mb 0.00 in0.0 mm 0.00 in/hr0.0 mm/hr 0.00 in0.0 mm
04:10 PM 10.2°F-12.1°C -7.5°F-21.9°C 44% 1.7 mph NW2.7 kmh NW 7.0 mph11.3 kmh 30.46 in1031.5 mb 0.00 in0.0 mm 0.00 in/hr0.0 mm/hr 0.00 in0.0 mm
04:00 PM 10.6°F-11.9°C -7.6°F-22.0°C 43% 3.0 mph NW4.8 kmh NW 8.0 mph12.9 kmh 30.46 in1031.5 mb 0.00 in0.0 mm 0.00 in/hr0.0 mm/hr 0.00 in0.0 mm
03:50 PM 10.8°F-11.8°C -7.3°F-21.8°C 43% 1.8 mph N2.9 kmh N 3.0 mph4.8 kmh 30.46 in1031.5 mb 0.00 in0.0 mm 0.00 in/hr0.0 mm/hr 0.00 in0.0 mm
03:40 PM 11.4°F-11.4°C -7.3°F-21.8°C 42% 1.7 mph NW2.7 kmh NW 8.0 mph12.9 kmh 30.46 in1031.5 mb 0.00 in0.0 mm 0.00 in/hr0.0 mm/hr 0.00 in0.0 mm
03:30 PM 10.8°F-11.8°C -7.4°F-21.9°C 43% 0.7 mph NW1.1 kmh NW 5.0 mph8.0 kmh 30.46 in1031.5 mb 0.00 in0.0 mm 0.00 in/hr0.0 mm/hr 0.00 in0.0 mm
03:20 PM 10.5°F-11.9°C -7.1°F-21.7°C 44% 0.9 mph NW1.4 kmh NW 8.0 mph12.9 kmh 30.46 in1031.5 mb 0.00 in0.0 mm 0.00 in/hr0.0 mm/hr 0.00 in0.0 mm
03:10 PM 10.3°F-12.1°C -7.3°F-21.8°C 44% 2.7 mph NW4.3 kmh NW 3.0 mph4.8 kmh 30.46 in1031.5 mb 0.00 in0.0 mm 0.00 in/hr0.0 mm/hr 0.00 in0.0 mm
03:00 PM 9.9°F-12.3°C -7.7°F-22.1°C 44% 0.4 mph N0.6 kmh N -- 30.46 in1031.5 mb 0.00 in0.0 mm 0.00 in/hr0.0 mm/hr 0.00 in0.0 mm
02:50 PM 10.8°F-11.8°C -7.4°F-21.9°C 43% 4.0 mph NNW6.4 kmh NNW 10.0 mph16.1 kmh 30.46 in1031.5 mb 0.00 in0.0 mm 0.00 in/hr0.0 mm/hr 0.00 in0.0 mm
02:40 PM 10.9°F-11.7°C -6.8°F-21.6°C 44% 2.1 mph NNW3.4 kmh NNW 5.0 mph8.0 kmh 30.46 in1031.5 mb 0.00 in0.0 mm 0.00 in/hr0.0 mm/hr 0.00 in0.0 mm
02:30 PM 10.3°F-12.1°C -7.3°F-21.8°C 44% 1.9 mph W3.1 kmh W 6.0 mph9.7 kmh 30.46 in1031.5 mb 0.00 in0.0 mm 0.00 in/hr0.0 mm/hr 0.00 in0.0 mm
02:20 PM 10.8°F-11.8°C -6.9°F-21.6°C 44% 2.7 mph 4.3 kmh 5.0 mph8.0 kmh 30.46 in1031.5 mb 0.00 in0.0 mm 0.00 in/hr0.0 mm/hr 0.00 in0.0 mm
02:10 PM 10.7°F-11.8°C -7.0°F-21.7°C 44% 2.3 mph WNW3.7 kmh WNW 6.0 mph9.7 kmh 30.46 in1031.5 mb 0.00 in0.0 mm 0.00 in/hr0.0 mm/hr 0.00 in0.0 mm
02:00 PM 10.6°F-11.9°C -8.1°F-22.3°C 42% 4.9 mph NNE7.9 kmh NNE 9.0 mph14.5 kmh 30.46 in1031.5 mb 0.00 in0.0 mm 0.00 in/hr0.0 mm/hr 0.00 in0.0 mm
01:50 PM 10.4°F-12.0°C -7.7°F-22.1°C 43% 2.9 mph NNE4.7 kmh NNE 4.0 mph6.4 kmh 30.46 in1031.5 mb 0.00 in0.0 mm 0.00 in/hr0.0 mm/hr 0.00 in0.0 mm
01:40 PM 10.0°F-12.2°C -7.6°F-22.0°C 44% 1.6 mph N2.6 kmh N 4.0 mph6.4 kmh 30.46 in1031.5 mb 0.00 in0.0 mm 0.00 in/hr0.0 mm/hr 0.00 in0.0 mm
01:30 PM 9.8°F-12.3°C -7.8°F-22.1°C 44% 2.9 mph N4.7 kmh N 4.0 mph6.4 kmh 30.47 in1031.8 mb 0.00 in0.0 mm 0.00 in/hr0.0 mm/hr 0.00 in0.0 mm
01:20 PM 9.5°F-12.5°C -8.1°F-22.3°C 44% 1.8 mph NNW2.9 kmh NNW 3.0 mph4.8 kmh 30.47 in1031.8 mb 0.00 in0.0 mm 0.00 in/hr0.0 mm/hr 0.00 in0.0 mm
01:10 PM 9.2°F-12.7°C -8.3°F-22.4°C 44% 1.8 mph WNW2.9 kmh WNW 4.0 mph6.4 kmh 30.47 in1031.8 mb 0.00 in0.0 mm 0.00 in/hr0.0 mm/hr 0.00 in0.0 mm
01:00 PM 9.2°F-12.7°C -7.5°F-21.9°C 46% 3.7 mph N6.0 kmh N 7.0 mph11.3 kmh 30.47 in1031.8 mb 0.00 in0.0 mm 0.00 in/hr0.0 mm/hr 0.00 in0.0 mm
12:50 PM 8.5°F-13.1°C -8.5°F-22.5°C 45% 2.6 mph NW4.2 kmh NW 7.0 mph11.3 kmh 30.47 in1031.8 mb 0.00 in0.0 mm 0.00 in/hr0.0 mm/hr 0.00 in0.0 mm
12:40 PM 9.0°F-12.8°C -8.0°F-22.2°C 45% 3.0 mph NNW4.8 kmh NNW 8.0 mph12.9 kmh 30.48 in1032.2 mb 0.00 in0.0 mm 0.00 in/hr0.0 mm/hr 0.00 in0.0 mm
12:30 PM 8.6°F-13.0°C -8.9°F-22.7°C 44% 3.2 mph W5.1 kmh W 7.0 mph11.3 kmh 30.48 in1032.2 mb 0.00 in0.0 mm 0.00 in/hr0.0 mm/hr 0.00 in0.0 mm
12:20 PM 9.4°F-12.6°C -8.2°F-22.3°C 44% 5.1 mph NNE8.2 kmh NNE 9.0 mph14.5 kmh 30.48 in1032.2 mb 0.00 in0.0 mm 0.00 in/hr0.0 mm/hr 0.00 in0.0 mm
12:10 PM 8.5°F-13.1°C -9.0°F-22.8°C 44% 0.8 mph N1.3 kmh N 5.0 mph8.0 kmh 30.48 in1032.2 mb 0.00 in0.0 mm 0.00 in/hr0.0 mm/hr 0.00 in0.0 mm
12:00 PM 8.5°F-13.1°C -8.5°F-22.5°C 45% 0.8 mph N1.3 kmh N 3.0 mph4.8 kmh 30.48 in1032.2 mb 0.00 in0.0 mm 0.00 in/hr0.0 mm/hr 0.00 in0.0 mm
11:50 AM 8.6°F-13.0°C -8.5°F-22.5°C 45% 2.3 mph N3.7 kmh N 3.0 mph4.8 kmh 30.48 in1032.2 mb 0.00 in0.0 mm 0.00 in/hr0.0 mm/hr 0.00 in0.0 mm
11:40 AM 8.3°F-13.2°C -7.9°F-22.2°C 47% 0.7 mph N1.1 kmh N 2.0 mph3.2 kmh 30.49 in1032.5 mb 0.00 in0.0 mm 0.00 in/hr0.0 mm/hr 0.00 in0.0 mm
11:30 AM 7.3°F-13.7°C -8.7°F-22.6°C 47% 2.0 mph N3.2 kmh N 4.0 mph6.4 kmh 30.49 in1032.5 mb 0.00 in0.0 mm 0.00 in/hr0.0 mm/hr 0.00 in0.0 mm
11:20 AM 7.0°F-13.9°C -9.0°F-22.8°C 47% 3.0 mph NNE4.8 kmh NNE 5.0 mph8.0 kmh 30.49 in1032.5 mb 0.00 in0.0 mm 0.00 in/hr0.0 mm/hr 0.00 in0.0 mm
11:10 AM 6.8°F-14.0°C -8.3°F-22.4°C 49% 2.2 mph N3.5 kmh N 4.0 mph6.4 kmh 30.49 in1032.5 mb 0.00 in0.0 mm 0.00 in/hr0.0 mm/hr 0.00 in0.0 mm
11:00 AM 6.2°F-14.3°C -8.9°F-22.7°C 49% 1.6 mph NW2.6 kmh NW 6.0 mph9.7 kmh 30.48 in1032.2 mb 0.00 in0.0 mm 0.00 in/hr0.0 mm/hr 0.00 in0.0 mm
10:50 AM 5.4°F-14.8°C -9.2°F-22.9°C 50% 2.0 mph NNW3.2 kmh NNW 3.0 mph4.8 kmh 30.48 in1032.2 mb 0.00 in0.0 mm 0.00 in/hr0.0 mm/hr 0.00 in0.0 mm
10:40 AM 4.8°F-15.1°C -9.8°F-23.2°C 50% 1.1 mph NW1.8 kmh NW 4.0 mph6.4 kmh 30.48 in1032.2 mb 0.00 in0.0 mm 0.00 in/hr0.0 mm/hr 0.00 in0.0 mm
10:30 AM 3.9°F-15.6°C -10.2°F-23.4°C 51% 2.5 mph N4.0 kmh N 4.0 mph6.4 kmh 30.48 in1032.2 mb 0.00 in0.0 mm 0.00 in/hr0.0 mm/hr 0.00 in0.0 mm
10:20 AM 3.3°F-15.9°C -10.0°F-23.3°C 53% Calm Calm 1.0 mph1.6 kmh 30.48 in1032.2 mb 0.00 in0.0 mm 0.00 in/hr0.0 mm/hr 0.00 in0.0 mm
10:10 AM 2.4°F-16.4°C -10.1°F-23.4°C 55% 0.7 mph NNW1.1 kmh NNW -- 30.48 in1032.2 mb 0.00 in0.0 mm 0.00 in/hr0.0 mm/hr 0.00 in0.0 mm
10:00 AM 2.1°F-16.6°C -10.4°F-23.6°C 55% 0.3 mph NW0.5 kmh NW 4.0 mph6.4 kmh 30.48 in1032.2 mb 0.00 in0.0 mm 0.00 in/hr0.0 mm/hr 0.00 in0.0 mm
09:50 AM 1.3°F-17.1°C -10.7°F-23.7°C 56% 1.3 mph NNE2.1 kmh NNE 5.0 mph8.0 kmh 30.48 in1032.2 mb 0.00 in0.0 mm 0.00 in/hr0.0 mm/hr 0.00 in0.0 mm
09:40 AM 0.8°F-17.3°C -10.8°F-23.8°C 57% 0.4 mph N0.6 kmh N 1.0 mph1.6 kmh 30.48 in1032.2 mb 0.00 in0.0 mm 0.00 in/hr0.0 mm/hr 0.00 in0.0 mm
09:30 AM 0.3°F-17.6°C -11.4°F-24.1°C 57% 2.8 mph NW4.5 kmh NW 6.0 mph9.7 kmh 30.48 in1032.2 mb 0.00 in0.0 mm 0.00 in/hr0.0 mm/hr 0.00 in0.0 mm
09:20 AM 0.2°F-17.7°C -11.1°F-23.9°C 58% 1.5 mph NW2.4 kmh NW 5.0 mph8.0 kmh 30.48 in1032.2 mb 0.00 in0.0 mm 0.00 in/hr0.0 mm/hr 0.00 in0.0 mm
09:10 AM -0.3°F-17.9°C -11.2°F-24.0°C 59% 1.4 mph N2.3 kmh N 3.0 mph4.8 kmh 30.47 in1031.8 mb 0.00 in0.0 mm 0.00 in/hr0.0 mm/hr 0.00 in0.0 mm
09:00 AM -1.2°F-18.4°C -11.7°F-24.3°C 60% Calm Calm -- 30.47 in1031.8 mb 0.00 in0.0 mm 0.00 in/hr0.0 mm/hr 0.00 in0.0 mm
08:50 AM -1.6°F-18.7°C -11.8°F-24.3°C 61% 0.2 mph NW0.3 kmh NW 3.0 mph4.8 kmh 30.47 in1031.8 mb 0.00 in0.0 mm 0.00 in/hr0.0 mm/hr 0.00 in0.0 mm
08:40 AM -2.2°F-19.0°C -12.0°F-24.4°C 62% Calm Calm -- 30.47 in1031.8 mb 0.00 in0.0 mm 0.00 in/hr0.0 mm/hr 0.00 in0.0 mm
08:30 AM -2.5°F-19.2°C -12.0°F-24.4°C 63% 0.9 mph NNW1.4 kmh NNW 2.0 mph3.2 kmh 30.47 in1031.8 mb 0.00 in0.0 mm 0.00 in/hr0.0 mm/hr 0.00 in0.0 mm
08:20 AM -2.9°F-19.4°C -12.4°F-24.7°C 63% 1.7 mph N2.7 kmh N 3.0 mph4.8 kmh 30.46 in1031.5 mb 0.00 in0.0 mm 0.00 in/hr0.0 mm/hr 0.00 in0.0 mm
08:10 AM -3.1°F-19.5°C -12.0°F-24.4°C 65% 0.8 mph NNW1.3 kmh NNW 2.0 mph3.2 kmh 30.46 in1031.5 mb 0.00 in0.0 mm 0.00 in/hr0.0 mm/hr 0.00 in0.0 mm
08:00 AM -3.5°F-19.7°C -12.3°F-24.6°C 65% 0.3 mph N0.5 kmh N 2.0 mph3.2 kmh 30.46 in1031.5 mb 0.00 in0.0 mm 0.00 in/hr0.0 mm/hr 0.00 in0.0 mm
07:50 AM -3.8°F-19.9°C -12.3°F-24.6°C 66% 2.2 mph NW3.5 kmh NW 3.0 mph4.8 kmh 30.45 in1031.2 mb 0.00 in0.0 mm 0.00 in/hr0.0 mm/hr 0.00 in0.0 mm
07:40 AM -4.3°F-20.2°C -12.8°F-24.9°C 66% 0.5 mph NNW0.8 kmh NNW 2.0 mph3.2 kmh 30.45 in1031.2 mb 0.00 in0.0 mm 0.00 in/hr0.0 mm/hr 0.00 in0.0 mm
07:30 AM -4.3°F-20.2°C -12.5°F-24.7°C 67% 0.1 mph NNW0.2 kmh NNW -- 30.44 in1030.8 mb 0.00 in0.0 mm 0.00 in/hr0.0 mm/hr 0.00 in0.0 mm
07:20 AM -4.4°F-20.2°C -12.6°F-24.8°C 67% 1.5 mph NW2.4 kmh NW 3.0 mph4.8 kmh 30.44 in1030.8 mb 0.00 in0.0 mm 0.00 in/hr0.0 mm/hr 0.00 in0.0 mm
07:10 AM -4.4°F-20.2°C -12.6°F-24.8°C 67% 0.4 mph NW0.6 kmh NW 1.0 mph1.6 kmh 30.43 in1030.5 mb 0.00 in0.0 mm 0.00 in/hr0.0 mm/hr 0.00 in0.0 mm
07:00 AM -4.3°F-20.2°C -12.5°F-24.7°C 67% 1.2 mph NW1.9 kmh NW 2.0 mph3.2 kmh 30.43 in1030.5 mb 0.00 in0.0 mm 0.00 in/hr0.0 mm/hr 0.00 in0.0 mm
06:50 AM -4.2°F-20.1°C -12.4°F-24.7°C 67% 1.2 mph NW1.9 kmh NW 2.0 mph3.2 kmh 30.43 in1030.5 mb 0.00 in0.0 mm 0.00 in/hr0.0 mm/hr 0.00 in0.0 mm
06:40 AM -4.0°F-20.0°C -12.5°F-24.7°C 66% Calm Calm -- 30.42 in1030.1 mb 0.00 in0.0 mm 0.00 in/hr0.0 mm/hr 0.00 in0.0 mm
06:30 AM -3.8°F-19.9°C -12.3°F-24.6°C 66% 1.1 mph NNW1.8 kmh NNW 3.0 mph4.8 kmh 30.41 in1029.8 mb 0.00 in0.0 mm 0.00 in/hr0.0 mm/hr 0.00 in0.0 mm
06:20 AM -3.6°F-19.8°C -12.1°F-24.5°C 66% 1.1 mph N1.8 kmh N 2.0 mph3.2 kmh 30.41 in1029.8 mb 0.00 in0.0 mm 0.00 in/hr0.0 mm/hr 0.00 in0.0 mm
06:10 AM -3.5°F-19.7°C -12.3°F-24.6°C 65% Calm Calm -- 30.41 in1029.8 mb 0.00 in0.0 mm 0.00 in/hr0.0 mm/hr 0.00 in0.0 mm
06:00 AM -3.4°F-19.7°C -12.2°F-24.6°C 65% 1.1 mph NW1.8 kmh NW 3.0 mph4.8 kmh 30.40 in1029.5 mb 0.00 in0.0 mm 0.00 in/hr0.0 mm/hr 0.00 in0.0 mm
05:50 AM -3.3°F-19.6°C -12.1°F-24.5°C 65% Calm Calm 1.0 mph1.6 kmh 30.40 in1029.5 mb 0.00 in0.0 mm 0.00 in/hr0.0 mm/hr 0.00 in0.0 mm
05:40 AM -3.2°F-19.6°C -12.0°F-24.4°C 65% 0.2 mph NNW0.3 kmh NNW 2.0 mph3.2 kmh 30.40 in1029.5 mb 0.00 in0.0 mm 0.00 in/hr0.0 mm/hr 0.00 in0.0 mm
05:30 AM -3.1°F-19.5°C -12.2°F-24.6°C 64% 0.4 mph N0.6 kmh N 2.0 mph3.2 kmh 30.39 in1029.1 mb 0.00 in0.0 mm 0.00 in/hr0.0 mm/hr 0.00 in0.0 mm
05:20 AM -2.9°F-19.4°C -12.1°F-24.5°C 64% 0.4 mph WNW0.6 kmh WNW 2.0 mph3.2 kmh 30.39 in1029.1 mb 0.00 in0.0 mm 0.00 in/hr0.0 mm/hr 0.00 in0.0 mm
05:10 AM -2.7°F-19.3°C -11.9°F-24.4°C 64% 2.1 mph NW3.4 kmh NW 3.0 mph4.8 kmh 30.39 in1029.1 mb 0.00 in0.0 mm 0.00 in/hr0.0 mm/hr 0.00 in0.0 mm
05:00 AM -2.6°F-19.2°C -12.1°F-24.5°C 63% Calm Calm -- 30.39 in1029.1 mb 0.00 in0.0 mm 0.00 in/hr0.0 mm/hr 0.00 in0.0 mm
04:50 AM -2.4°F-19.1°C -11.9°F-24.4°C 63% 0.1 mph NW0.2 kmh NW 3.0 mph4.8 kmh 30.39 in1029.1 mb 0.00 in0.0 mm 0.00 in/hr0.0 mm/hr 0.00 in0.0 mm
04:40 AM -2.2°F-19.0°C -12.0°F-24.4°C 62% Calm Calm 2.0 mph3.2 kmh 30.39 in1029.1 mb 0.00 in0.0 mm 0.00 in/hr0.0 mm/hr 0.00 in0.0 mm
04:30 AM -1.8°F-18.8°C -12.0°F-24.4°C 61% Calm Calm 2.0 mph3.2 kmh 30.38 in1028.8 mb 0.00 in0.0 mm 0.00 in/hr0.0 mm/hr 0.00 in0.0 mm
04:20 AM -1.5°F-18.6°C -12.0°F-24.4°C 60% 0.3 mph NW0.5 kmh NW 2.0 mph3.2 kmh 30.38 in1028.8 mb 0.00 in0.0 mm 0.00 in/hr0.0 mm/hr 0.00 in0.0 mm
04:10 AM -1.3°F-18.5°C -11.8°F-24.3°C 60% 0.6 mph NW1.0 kmh NW 3.0 mph4.8 kmh 30.38 in1028.8 mb 0.00 in0.0 mm 0.00 in/hr0.0 mm/hr 0.00 in0.0 mm
04:00 AM -1.2°F-18.4°C -11.7°F-24.3°C 60% 0.2 mph NW0.3 kmh NW 2.0 mph3.2 kmh 30.37 in1028.4 mb 0.00 in0.0 mm 0.00 in/hr0.0 mm/hr 0.00 in0.0 mm
03:50 AM -1.0°F-18.3°C -11.9°F-24.4°C 59% 0.5 mph NW0.8 kmh NW 3.0 mph4.8 kmh 30.37 in1028.4 mb 0.00 in0.0 mm 0.00 in/hr0.0 mm/hr 0.00 in0.0 mm
03:40 AM -0.7°F-18.2°C -11.6°F-24.2°C 59% Calm Calm 1.0 mph1.6 kmh 30.37 in1028.4 mb 0.00 in0.0 mm 0.00 in/hr0.0 mm/hr 0.00 in0.0 mm
03:30 AM -0.4°F-18.0°C -11.7°F-24.3°C 58% Calm Calm -- 30.37 in1028.4 mb 0.00 in0.0 mm 0.00 in/hr0.0 mm/hr 0.00 in0.0 mm
03:20 AM -0.3°F-17.9°C -11.6°F-24.2°C 58% 0.9 mph NNW1.4 kmh NNW 1.0 mph1.6 kmh 30.36 in1028.1 mb 0.00 in0.0 mm 0.00 in/hr0.0 mm/hr 0.00 in0.0 mm
03:10 AM 0.0°F-17.8°C -11.6°F-24.2°C 57% Calm Calm -- 30.36 in1028.1 mb 0.00 in0.0 mm 0.00 in/hr0.0 mm/hr 0.00 in0.0 mm
03:00 AM 0.1°F-17.7°C -11.6°F-24.2°C 57% 0.8 mph NNW1.3 kmh NNW 2.0 mph3.2 kmh 30.36 in1028.1 mb 0.00 in0.0 mm 0.00 in/hr0.0 mm/hr 0.00 in0.0 mm
02:50 AM 0.2°F-17.7°C -11.4°F-24.1°C 57% 0.7 mph NNW1.1 kmh NNW 1.0 mph1.6 kmh 30.36 in1028.1 mb 0.00 in0.0 mm 0.00 in/hr0.0 mm/hr 0.00 in0.0 mm
02:40 AM 0.5°F-17.5°C -11.2°F-24.0°C 57% 0.9 mph NW1.4 kmh NW 2.0 mph3.2 kmh 30.35 in1027.8 mb 0.00 in0.0 mm 0.00 in/hr0.0 mm/hr 0.00 in0.0 mm
02:30 AM 0.6°F-17.4°C -11.4°F-24.1°C 56% 0.2 mph NNW0.3 kmh NNW 2.0 mph3.2 kmh 30.35 in1027.8 mb 0.00 in0.0 mm 0.00 in/hr0.0 mm/hr 0.00 in0.0 mm
02:20 AM 0.9°F-17.3°C -11.2°F-24.0°C 56% 0.1 mph NNW0.2 kmh NNW 2.0 mph3.2 kmh 30.35 in1027.8 mb 0.00 in0.0 mm 0.00 in/hr0.0 mm/hr 0.00 in0.0 mm
02:10 AM 1.1°F-17.2°C -11.0°F-23.9°C 56% Calm Calm -- 30.35 in1027.8 mb 0.00 in0.0 mm 0.00 in/hr0.0 mm/hr 0.00 in0.0 mm
02:00 AM 1.3°F-17.1°C -10.8°F-23.8°C 56% 1.0 mph N1.6 kmh N 2.0 mph3.2 kmh 30.34 in1027.4 mb 0.00 in0.0 mm 0.00 in/hr0.0 mm/hr 0.00 in0.0 mm
01:50 AM 1.4°F-17.0°C -11.1°F-23.9°C 55% 0.5 mph N0.8 kmh N 2.0 mph3.2 kmh 30.34 in1027.4 mb 0.00 in0.0 mm 0.00 in/hr0.0 mm/hr 0.00 in0.0 mm
01:40 AM 1.7°F-16.8°C -10.8°F-23.8°C 55% 0.3 mph NNW0.5 kmh NNW -- 30.34 in1027.4 mb 0.00 in0.0 mm 0.00 in/hr0.0 mm/hr 0.00 in0.0 mm
01:30 AM 1.8°F-16.8°C -10.7°F-23.7°C 55% 0.6 mph N1.0 kmh N 4.0 mph6.4 kmh 30.33 in1027.1 mb 0.00 in0.0 mm 0.00 in/hr0.0 mm/hr 0.00 in0.0 mm
01:20 AM 2.0°F-16.7°C -10.5°F-23.6°C 55% 1.6 mph NNW2.6 kmh NNW 4.0 mph6.4 kmh 30.33 in1027.1 mb 0.00 in0.0 mm 0.00 in/hr0.0 mm/hr 0.00 in0.0 mm
01:10 AM 2.2°F-16.6°C -10.7°F-23.7°C 54% 0.7 mph N1.1 kmh N 5.0 mph8.0 kmh 30.32 in1026.8 mb 0.00 in0.0 mm 0.00 in/hr0.0 mm/hr 0.00 in0.0 mm
01:00 AM 2.4°F-16.4°C -10.5°F-23.6°C 54% Calm Calm -- 30.32 in1026.8 mb 0.00 in0.0 mm 0.00 in/hr0.0 mm/hr 0.00 in0.0 mm
12:50 AM 2.7°F-16.3°C -10.2°F-23.4°C 54% 2.8 mph NNE4.5 kmh NNE 6.0 mph9.7 kmh 30.32 in1026.8 mb 0.00 in0.0 mm 0.00 in/hr0.0 mm/hr 0.00 in0.0 mm
12:40 AM 2.9°F-16.2°C -10.1°F-23.4°C 54% 0.8 mph NNW1.3 kmh NNW 4.0 mph6.4 kmh 30.31 in1026.4 mb 0.00 in0.0 mm 0.00 in/hr0.0 mm/hr 0.00 in0.0 mm
12:30 AM 3.0°F-16.1°C -10.0°F-23.3°C 54% 0.8 mph N1.3 kmh N 4.0 mph6.4 kmh 30.31 in1026.4 mb 0.00 in0.0 mm 0.00 in/hr0.0 mm/hr 0.00 in0.0 mm
12:20 AM 3.3°F-15.9°C -10.0°F-23.3°C 53% 1.2 mph NNE1.9 kmh NNE 2.0 mph3.2 kmh 30.31 in1026.4 mb 0.00 in0.0 mm 0.00 in/hr0.0 mm/hr 0.00 in0.0 mm
12:10 AM 3.6°F-15.8°C -9.7°F-23.2°C 53% 1.2 mph NNE1.9 kmh NNE 5.0 mph8.0 kmh 30.30 in1026.1 mb 0.00 in0.0 mm 0.00 in/hr0.0 mm/hr 0.00 in0.0 mm
12:00 AM 3.8°F-15.7°C -9.6°F-23.1°C 53% 1.5 mph N2.4 kmh N 7.0 mph11.3 kmh 30.30 in1026.1 mb 0.00 in0.0 mm 0.00 in/hr0.0 mm/hr 0.00 in0.0 mm